Trina Smith — WDE3530 — position and weather

sailwx.info

Track history (hours):
 
Tides and Currents Weather Stations Pressure Air Temp Water Temp Dewpoint Dewpoint Depression Visibility Wind Speed Wind Dir Waves Ship Positions

Trina Smith

Owner: Florida Marine, LLC, Mandeville, LA. More information available from US FCC via Universal Licensing System and Coast Guard Vessel Documentation Center.

Last reported at 2018-Feb-21 03:05 UTC. Time now 2018-Feb-23 04:56 UTC.
Position N 29°21' W 094°49'.

Length 27 m; draft 2.9 m.

Type: Towing. MMSI: 367340460.

Date/timePositionNaut miles runAvg speedWind from/ knotsBaromVisibWave heightAir tempDewpointWater temp
2018-Feb-21 03:05N 29°21' W 094°49'0 0.0
2018-Feb-21 02:36N 29°21' W 094°49'0 0.0
2018-Feb-21 02:21N 29°21' W 094°49'5 1.2
2018-Feb-20 21:52N 29°26' W 094°50'3 7.6
2018-Feb-20 21:30N 29°29' W 094°52'4 7.3
2018-Feb-20 21:00N 29°32' W 094°54'4 7.0
2018-Feb-20 20:30N 29°35' W 094°56'3 6.9
2018-Feb-20 20:00N 29°38' W 094°58'3 6.8
2018-Feb-20 19:30N 29°41' W 094°59'3 5.6
2018-Feb-20 19:00N 29°43' W 095°01'3 5.8
2018-Feb-20 18:29N 29°45' W 095°04'2 1.3
2018-Feb-20 17:16N 29°47' W 095°05'0 0.0
2018-Feb-20 15:22N 29°46' W 095°05'0 0.0
2018-Feb-20 14:24N 29°46' W 095°05'0 0.0
2018-Feb-20 14:00N 29°46' W 095°05'0 0.0
2018-Feb-20 13:30N 29°46' W 095°05'0 0.0
2018-Feb-20 12:54N 29°46' W 095°05'0 0.0
2018-Feb-20 12:29N 29°46' W 095°05'0 0.0
2018-Feb-20 12:00N 29°46' W 095°05'0 0.0
2018-Feb-20 11:05N 29°46' W 095°05'0 0.0
2018-Feb-20 10:53N 29°46' W 095°05'1 2.0
2018-Feb-20 10:24N 29°46' W 095°05'2 5.0
2018-Feb-20 09:59N 29°44' W 095°07'4 3.5
2018-Feb-20 08:47N 29°44' W 095°12'0 0.0
2018-Feb-20 08:17N 29°44' W 095°12'0 0.0
2018-Feb-20 08:00N 29°44' W 095°12'0 0.0
2018-Feb-20 07:26N 29°44' W 095°12'0 0.0
2018-Feb-20 04:16N 29°44' W 095°12'0 0.0
2018-Feb-20 03:50N 29°44' W 095°12'0 0.0
2018-Feb-20 03:09N 29°44' W 095°12'0 0.0
2018-Feb-20 02:43N 29°44' W 095°12'0 0.0
2018-Feb-19 15:29N 29°44' W 095°12'0 0.0
2018-Feb-19 15:00N 29°44' W 095°12'0 0.0
2018-Feb-19 14:30N 29°44' W 095°12'0 0.0
2018-Feb-19 14:00N 29°44' W 095°12'0 0.0
2018-Feb-19 13:29N 29°44' W 095°12'0 0.0
2018-Feb-19 12:00N 29°44' W 095°12'0 0.0
2018-Feb-19 10:06N 29°44' W 095°12'0 0.0
2018-Feb-19 09:42N 29°44' W 095°12'0 0.0
2018-Feb-19 09:28N 29°44' W 095°12'0 0.0
2018-Feb-19 08:49N 29°44' W 095°12'0 0.0
2018-Feb-19 08:30N 29°44' W 095°12'0 0.0
2018-Feb-19 08:00N 29°44' W 095°12'0 0.0
2018-Feb-19 07:30N 29°44' W 095°12'0 0.0
2018-Feb-19 07:00N 29°44' W 095°12'0 0.0
2018-Feb-19 06:30N 29°44' W 095°12'0 0.0
2018-Feb-19 06:00N 29°44' W 095°12'0 0.1
2018-Feb-19 05:28N 29°44' W 095°12'0 0.0
2018-Feb-19 04:58N 29°44' W 095°12'2 0.3
2018-Feb-18 22:23N 29°45' W 095°10'3 6.2
2018-Feb-18 21:54N 29°44' W 095°07'4 5.6
2018-Feb-18 21:12N 29°47' W 095°04'0 1.7
2018-Feb-18 21:00N 29°47' W 095°04'2 0.6
2018-Feb-18 17:40N 29°46' W 095°06'0 0.0
2018-Feb-18 17:29N 29°46' W 095°06'0 0.3
2018-Feb-18 16:37N 29°46' W 095°06'2 5.3
2018-Feb-18 16:15N 29°47' W 095°04'0 1.8
2018-Feb-18 16:00N 29°47' W 095°04'0 0.0
2018-Feb-18 15:28N 29°47' W 095°04'1 1.4
2018-Feb-18 14:59N 29°47' W 095°04'3 0.3
2018-Feb-18 07:09N 29°45' W 095°06'0 1.3
2018-Feb-18 07:00N 29°45' W 095°06'2 3.0
2018-Feb-18 06:28N 29°46' W 095°05'1 3.2
2018-Feb-18 06:00N 29°47' W 095°04'3 3.3
2018-Feb-18 05:06N 29°45' W 095°06'0 0.0
2018-Feb-18 00:50N 29°45' W 095°06'0 0.0
2018-Feb-17 23:15N 29°45' W 095°06'0 0.7
2018-Feb-17 22:59N 29°45' W 095°06'0 0.4
2018-Feb-17 22:28N 29°45' W 095°06'0 0.0
2018-Feb-17 22:00N 29°45' W 095°06'0 0.0
2018-Feb-17 21:29N 29°45' W 095°06'0 0.0
2018-Feb-17 20:57N 29°45' W 095°06'0 0.1
2018-Feb-17 20:11N 29°45' W 095°06'1 3.5
2018-Feb-17 19:57N 29°46' W 095°06'0 0.5
2018-Feb-17 19:23N 29°46' W 095°07'1 1.4
2018-Feb-17 19:00N 29°46' W 095°06'0 0.1
2018-Feb-17 15:14N 29°46' W 095°06'1 3.5
2018-Feb-17 15:00N 29°46' W 095°05'1 0.2
2018-Feb-17 09:45N 29°45' W 095°06'1 2.9
2018-Feb-17 09:26N 29°46' W 095°05'2 3.6
2018-Feb-17 08:49N 29°47' W 095°04'0 0.1
2018-Feb-17 08:30N 29°47' W 095°04'0 0.1
2018-Feb-17 07:11N 29°47' W 095°04'0 0.5
2018-Feb-17 06:55N 29°47' W 095°04'0 0.0
2018-Feb-17 06:30N 29°47' W 095°04'0 0.0
2018-Feb-17 05:57N 29°47' W 095°04'0 0.1
2018-Feb-17 04:03N 29°47' W 095°04'0 5.6
2018-Feb-17 04:00N 29°47' W 095°04'1 2.8
2018-Feb-17 03:29N 29°46' W 095°04'3 6.4
2018-Feb-17 03:00N 29°44' W 095°01'3 6.6
2018-Feb-17 02:30N 29°41' W 094°59'4 7.1
2018-Feb-17 01:59N 29°38' W 094°58'3 7.1
2018-Feb-17 01:30N 29°35' W 094°56'4 7.2
2018-Feb-17 01:00N 29°32' W 094°53'4 7.8
2018-Feb-17 00:30N 29°28' W 094°51'4 8.7
2018-Feb-17 00:00N 29°24' W 094°49'3 6.7
2018-Feb-16 23:30N 29°21' W 094°49'0 0.2
2018-Feb-16 22:58N 29°21' W 094°49'0 0.0
2018-Feb-16 22:19N 29°21' W 094°49'0 0.0
2018-Feb-16 21:43N 29°21' W 094°49'31 4.4
2018-Feb-16 14:39N 28°60' W 095°15'0 0.0
2018-Feb-16 14:19N 28°60' W 095°15'0 0.1
2018-Feb-16 13:56N 28°60' W 095°15'0 0.0
2018-Feb-16 13:17N 28°60' W 095°15'0 0.0
2018-Feb-16 13:00N 28°60' W 095°15'0 0.0
2018-Feb-16 11:12N 28°60' W 095°15'0 0.0
2018-Feb-16 10:45N 28°60' W 095°15'0 0.0
2018-Feb-16 10:28N 28°60' W 095°15'0 0.1
2018-Feb-16 09:37N 28°60' W 095°15'0 0.7
2018-Feb-16 09:13N 28°59' W 095°16'2 5.1
2018-Feb-16 08:44N 28°57' W 095°17'2 4.7
2018-Feb-16 08:19N 28°56' W 095°19'0 0.0
2018-Feb-16 08:00N 28°56' W 095°19'0 0.0
2018-Feb-16 07:20N 28°56' W 095°19'0 0.0
2018-Feb-16 06:59N 28°56' W 095°19'0 0.0
2018-Feb-16 06:29N 28°56' W 095°19'0 0.0
2018-Feb-16 05:54N 28°56' W 095°19'0 0.0
2018-Feb-16 05:30N 28°56' W 095°19'0 0.0
2018-Feb-16 05:00N 28°56' W 095°19'0 0.0
2018-Feb-16 04:30N 28°56' W 095°19'0 0.0
2018-Feb-16 03:54N 28°56' W 095°19'0 0.0
2018-Feb-16 03:30N 28°56' W 095°19'0 0.0
2018-Feb-16 03:00N 28°56' W 095°19'0 0.0
2018-Feb-16 02:19N 28°56' W 095°19'0 0.0
2018-Feb-16 01:54N 28°56' W 095°19'0 0.0
2018-Feb-16 01:30N 28°56' W 095°19'0 0.0
2018-Feb-16 00:59N 28°56' W 095°19'0 0.4
2018-Feb-16 00:15N 28°56' W 095°19'0 0.0
2018-Feb-15 23:56N 28°56' W 095°19'0 0.2
2018-Feb-15 23:25N 28°56' W 095°19'2 5.6
2018-Feb-15 23:00N 28°55' W 095°22'0 0.3
2018-Feb-15 22:26N 28°54' W 095°22'1 1.2
2018-Feb-15 21:17N 28°54' W 095°23'1 3.3
2018-Feb-15 20:59N 28°54' W 095°24'1 1.1
2018-Feb-15 20:01N 28°54' W 095°23'0 3.5
2018-Feb-15 19:59N 28°54' W 095°23'1 1.1
2018-Feb-15 19:08N 28°54' W 095°24'0 0.1
2018-Feb-15 18:54N 28°54' W 095°24'1 1.7
2018-Feb-15 18:23N 28°53' W 095°25'5 5.9
2018-Feb-15 17:29N 28°51' W 095°31'3 5.6
2018-Feb-15 17:00N 28°49' W 095°33'2 3.7
2018-Feb-15 16:29N 28°48' W 095°34'0 0.0
2018-Feb-15 15:59N 28°48' W 095°34'0 0.0
2018-Feb-15 15:16N 28°48' W 095°34'0 0.0
2018-Feb-15 15:00N 28°48' W 095°34'0 0.0
2018-Feb-15 14:29N 28°48' W 095°34'0 0.0
2018-Feb-15 13:59N 28°48' W 095°34'0 0.0
2018-Feb-15 13:27N 28°48' W 095°34'0 0.0
2018-Feb-15 13:00N 28°48' W 095°34'0 0.0
2018-Feb-15 12:30N 28°48' W 095°34'0 0.0
2018-Feb-15 11:04N 28°48' W 095°34'0 0.0
2018-Feb-15 10:32N 28°48' W 095°34'0 0.0
2018-Feb-15 10:27N 28°48' W 095°34'0 0.0
2018-Feb-15 09:58N 28°48' W 095°34'0 0.0
2018-Feb-15 08:42N 28°48' W 095°34'0 0.0
2018-Feb-15 07:41N 28°48' W 095°34'0 0.0
2018-Feb-15 07:29N 28°48' W 095°34'0 0.0
2018-Feb-15 06:56N 28°48' W 095°34'0 0.0
2018-Feb-15 06:30N 28°48' W 095°34'0 0.0
2018-Feb-15 06:00N 28°48' W 095°34'0 0.0
2018-Feb-15 05:25N 28°48' W 095°34'0 0.0
2018-Feb-15 04:52N 28°48' W 095°34'0 0.0
2018-Feb-15 04:22N 28°48' W 095°34'0 0.0
2018-Feb-15 03:58N 28°48' W 095°34'0 0.0
2018-Feb-15 03:16N 28°48' W 095°34'0 0.0
2018-Feb-15 03:00N 28°48' W 095°34'0 0.0
2018-Feb-15 01:49N 28°48' W 095°34'0 0.0
2018-Feb-15 00:43N 28°48' W 095°34'0 0.0
2018-Feb-15 00:19N 28°48' W 095°34'0 0.0
2018-Feb-14 21:47N 28°48' W 095°34'0 0.0
2018-Feb-14 20:06N 28°48' W 095°34'0 0.0
2018-Feb-14 20:00N 28°48' W 095°34'0 0.3
2018-Feb-14 19:29N 28°48' W 095°34'2 2.0
2018-Feb-14 18:22N 28°46' W 095°37'1 2.3
2018-Feb-14 17:50N 28°46' W 095°38'0 0.1
2018-Feb-14 16:50N 28°46' W 095°38'0 0.0
2018-Feb-14 16:27N 28°46' W 095°38'0 0.0
2018-Feb-14 15:40N 28°46' W 095°38'0 0.0
2018-Feb-14 13:55N 28°46' W 095°38'56 1.8
2018-Feb-13 07:07N 28°21' W 096°36'1 5.6
2018-Feb-13 06:54N 28°21' W 096°37'2 5.4
2018-Feb-13 06:29N 28°20' W 096°39'3 5.1
2018-Feb-13 05:53N 28°18' W 096°42'3 6.3
2018-Feb-13 05:21N 28°16' W 096°45'2 6.2
2018-Feb-13 04:57N 28°14' W 096°47'3 5.8
2018-Feb-13 04:29N 28°12' W 096°49'3 5.3
2018-Feb-13 03:57N 28°11' W 096°52'3 5.4
2018-Feb-13 03:29N 28°09' W 096°54'2 4.4
2018-Feb-13 02:57N 28°07' W 096°56'3 5.9
2018-Feb-13 02:29N 28°05' W 096°57'3 6.4
2018-Feb-13 01:59N 28°02' W 096°60'3 6.6
2018-Feb-13 01:29N 27°60' W 097°02'3 6.2
2018-Feb-13 00:59N 27°57' W 097°04'4 7.1
2018-Feb-13 00:27N 27°53' W 097°03'1 2.2
2018-Feb-12 23:59N 27°52' W 097°03'1 1.0
2018-Feb-12 23:27N 27°53' W 097°03'0 0.5
2018-Feb-12 22:59N 27°53' W 097°03'0 0.0
2018-Feb-12 22:29N 27°53' W 097°03'0 0.1
2018-Feb-12 21:59N 27°53' W 097°03'0 0.0
2018-Feb-12 21:29N 27°53' W 097°03'1 1.5
2018-Feb-12 20:59N 27°52' W 097°03'3 5.1
2018-Feb-12 20:29N 27°50' W 097°05'3 6.7
2018-Feb-12 19:59N 27°50' W 097°09'4 7.6
2018-Feb-12 19:29N 27°49' W 097°13'5 7.7
2018-Feb-12 18:53N 27°49' W 097°18'4 7.6
2018-Feb-12 18:21N 27°49' W 097°22'4 7.3
2018-Feb-12 17:50N 27°49' W 097°27'2 3.2
2018-Feb-12 17:10N 27°49' W 097°29'0 0.0
2018-Feb-12 16:54N 27°49' W 097°29'0 0.0
2018-Feb-12 16:21N 27°49' W 097°29'0 0.0
2018-Feb-12 15:58N 27°49' W 097°29'0 0.0
2018-Feb-12 15:12N 27°49' W 097°29'0 0.0
2018-Feb-12 14:52N 27°49' W 097°29'  
Track history (hours):
 
Tides and Currents Weather Stations Pressure Air Temp Water Temp Dewpoint Dewpoint Depression Visibility Wind Speed Wind Dir Waves Ship Positions

Trina Smith

Owner: Florida Marine, LLC, Mandeville, LA. More information available from US FCC via Universal Licensing System and Coast Guard Vessel Documentation Center.

Last reported at 2018-Feb-21 03:05 UTC. Time now 2018-Feb-23 04:56 UTC.
Position N 29°21' W 094°49'.

Length 27 m; draft 2.9 m.

Type: Towing. MMSI: 367340460.

Date/timePositionNaut miles runAvg speedWind from/ knotsBaromVisibWave heightAir tempDewpointWater temp
2018-Feb-21 03:05N 29°21' W 094°49'0 0.0
2018-Feb-21 02:36N 29°21' W 094°49'0 0.0
2018-Feb-21 02:21N 29°21' W 094°49'5 1.2
2018-Feb-20 21:52N 29°26' W 094°50'3 7.6
2018-Feb-20 21:30N 29°29' W 094°52'4 7.3
2018-Feb-20 21:00N 29°32' W 094°54'4 7.0
2018-Feb-20 20:30N 29°35' W 094°56'3 6.9
2018-Feb-20 20:00N 29°38' W 094°58'3 6.8
2018-Feb-20 19:30N 29°41' W 094°59'3 5.6
2018-Feb-20 19:00N 29°43' W 095°01'3 5.8
2018-Feb-20 18:29N 29°45' W 095°04'2 1.3
2018-Feb-20 17:16N 29°47' W 095°05'0 0.0
2018-Feb-20 15:22N 29°46' W 095°05'0 0.0
2018-Feb-20 14:24N 29°46' W 095°05'0 0.0
2018-Feb-20 14:00N 29°46' W 095°05'0 0.0
2018-Feb-20 13:30N 29°46' W 095°05'0 0.0
2018-Feb-20 12:54N 29°46' W 095°05'0 0.0
2018-Feb-20 12:29N 29°46' W 095°05'0 0.0
2018-Feb-20 12:00N 29°46' W 095°05'0 0.0
2018-Feb-20 11:05N 29°46' W 095°05'0 0.0
2018-Feb-20 10:53N 29°46' W 095°05'1 2.0
2018-Feb-20 10:24N 29°46' W 095°05'2 5.0
2018-Feb-20 09:59N 29°44' W 095°07'4 3.5
2018-Feb-20 08:47N 29°44' W 095°12'0 0.0
2018-Feb-20 08:17N 29°44' W 095°12'0 0.0
2018-Feb-20 08:00N 29°44' W 095°12'0 0.0
2018-Feb-20 07:26N 29°44' W 095°12'0 0.0
2018-Feb-20 04:16N 29°44' W 095°12'0 0.0
2018-Feb-20 03:50N 29°44' W 095°12'0 0.0
2018-Feb-20 03:09N 29°44' W 095°12'0 0.0
2018-Feb-20 02:43N 29°44' W 095°12'0 0.0
2018-Feb-19 15:29N 29°44' W 095°12'0 0.0
2018-Feb-19 15:00N 29°44' W 095°12'0 0.0
2018-Feb-19 14:30N 29°44' W 095°12'0 0.0
2018-Feb-19 14:00N 29°44' W 095°12'0 0.0
2018-Feb-19 13:29N 29°44' W 095°12'0 0.0
2018-Feb-19 12:00N 29°44' W 095°12'0 0.0
2018-Feb-19 10:06N 29°44' W 095°12'0 0.0
2018-Feb-19 09:42N 29°44' W 095°12'0 0.0
2018-Feb-19 09:28N 29°44' W 095°12'0 0.0
2018-Feb-19 08:49N 29°44' W 095°12'0 0.0
2018-Feb-19 08:30N 29°44' W 095°12'0 0.0
2018-Feb-19 08:00N 29°44' W 095°12'0 0.0
2018-Feb-19 07:30N 29°44' W 095°12'0 0.0
2018-Feb-19 07:00N 29°44' W 095°12'0 0.0
2018-Feb-19 06:30N 29°44' W 095°12'0 0.0
2018-Feb-19 06:00N 29°44' W 095°12'0 0.1
2018-Feb-19 05:28N 29°44' W 095°12'0 0.0
2018-Feb-19 04:58N 29°44' W 095°12'2 0.3
2018-Feb-18 22:23N 29°45' W 095°10'3 6.2
2018-Feb-18 21:54N 29°44' W 095°07'4 5.6
2018-Feb-18 21:12N 29°47' W 095°04'0 1.7
2018-Feb-18 21:00N 29°47' W 095°04'2 0.6
2018-Feb-18 17:40N 29°46' W 095°06'0 0.0
2018-Feb-18 17:29N 29°46' W 095°06'0 0.3
2018-Feb-18 16:37N 29°46' W 095°06'2 5.3
2018-Feb-18 16:15N 29°47' W 095°04'0 1.8
2018-Feb-18 16:00N 29°47' W 095°04'0 0.0
2018-Feb-18 15:28N 29°47' W 095°04'1 1.4
2018-Feb-18 14:59N 29°47' W 095°04'3 0.3
2018-Feb-18 07:09N 29°45' W 095°06'0 1.3
2018-Feb-18 07:00N 29°45' W 095°06'2 3.0
2018-Feb-18 06:28N 29°46' W 095°05'1 3.2
2018-Feb-18 06:00N 29°47' W 095°04'3 3.3
2018-Feb-18 05:06N 29°45' W 095°06'0 0.0
2018-Feb-18 00:50N 29°45' W 095°06'0 0.0
2018-Feb-17 23:15N 29°45' W 095°06'0 0.7
2018-Feb-17 22:59N 29°45' W 095°06'0 0.4
2018-Feb-17 22:28N 29°45' W 095°06'0 0.0
2018-Feb-17 22:00N 29°45' W 095°06'0 0.0
2018-Feb-17 21:29N 29°45' W 095°06'0 0.0
2018-Feb-17 20:57N 29°45' W 095°06'0 0.1
2018-Feb-17 20:11N 29°45' W 095°06'1 3.5
2018-Feb-17 19:57N 29°46' W 095°06'0 0.5
2018-Feb-17 19:23N 29°46' W 095°07'1 1.4
2018-Feb-17 19:00N 29°46' W 095°06'0 0.1
2018-Feb-17 15:14N 29°46' W 095°06'1 3.5
2018-Feb-17 15:00N 29°46' W 095°05'1 0.2
2018-Feb-17 09:45N 29°45' W 095°06'1 2.9
2018-Feb-17 09:26N 29°46' W 095°05'2 3.6
2018-Feb-17 08:49N 29°47' W 095°04'0 0.1
2018-Feb-17 08:30N 29°47' W 095°04'0 0.1
2018-Feb-17 07:11N 29°47' W 095°04'0 0.5
2018-Feb-17 06:55N 29°47' W 095°04'0 0.0
2018-Feb-17 06:30N 29°47' W 095°04'0 0.0
2018-Feb-17 05:57N 29°47' W 095°04'0 0.1
2018-Feb-17 04:03N 29°47' W 095°04'0 5.6
2018-Feb-17 04:00N 29°47' W 095°04'1 2.8
2018-Feb-17 03:29N 29°46' W 095°04'3 6.4
2018-Feb-17 03:00N 29°44' W 095°01'3 6.6
2018-Feb-17 02:30N 29°41' W 094°59'4 7.1
2018-Feb-17 01:59N 29°38' W 094°58'3 7.1
2018-Feb-17 01:30N 29°35' W 094°56'4 7.2
2018-Feb-17 01:00N 29°32' W 094°53'4 7.8
2018-Feb-17 00:30N 29°28' W 094°51'4 8.7
2018-Feb-17 00:00N 29°24' W 094°49'3 6.7
2018-Feb-16 23:30N 29°21' W 094°49'0 0.2
2018-Feb-16 22:58N 29°21' W 094°49'0 0.0
2018-Feb-16 22:19N 29°21' W 094°49'0 0.0
2018-Feb-16 21:43N 29°21' W 094°49'31 4.4
2018-Feb-16 14:39N 28°60' W 095°15'0 0.0
2018-Feb-16 14:19N 28°60' W 095°15'0 0.1
2018-Feb-16 13:56N 28°60' W 095°15'0 0.0
2018-Feb-16 13:17N 28°60' W 095°15'0 0.0
2018-Feb-16 13:00N 28°60' W 095°15'0 0.0
2018-Feb-16 11:12N 28°60' W 095°15'0 0.0
2018-Feb-16 10:45N 28°60' W 095°15'0 0.0
2018-Feb-16 10:28N 28°60' W 095°15'0 0.1
2018-Feb-16 09:37N 28°60' W 095°15'0 0.7
2018-Feb-16 09:13N 28°59' W 095°16'2 5.1
2018-Feb-16 08:44N 28°57' W 095°17'2 4.7
2018-Feb-16 08:19N 28°56' W 095°19'0 0.0
2018-Feb-16 08:00N 28°56' W 095°19'0 0.0
2018-Feb-16 07:20N 28°56' W 095°19'0 0.0
2018-Feb-16 06:59N 28°56' W 095°19'0 0.0
2018-Feb-16 06:29N 28°56' W 095°19'0 0.0
2018-Feb-16 05:54N 28°56' W 095°19'0 0.0
2018-Feb-16 05:30N 28°56' W 095°19'0 0.0
2018-Feb-16 05:00N 28°56' W 095°19'0 0.0
2018-Feb-16 04:30N 28°56' W 095°19'0 0.0
2018-Feb-16 03:54N 28°56' W 095°19'0 0.0
2018-Feb-16 03:30N 28°56' W 095°19'0 0.0
2018-Feb-16 03:00N 28°56' W 095°19'0 0.0
2018-Feb-16 02:19N 28°56' W 095°19'0 0.0
2018-Feb-16 01:54N 28°56' W 095°19'0 0.0
2018-Feb-16 01:30N 28°56' W 095°19'0 0.0
2018-Feb-16 00:59N 28°56' W 095°19'0 0.4
2018-Feb-16 00:15N 28°56' W 095°19'0 0.0
2018-Feb-15 23:56N 28°56' W 095°19'0 0.2
2018-Feb-15 23:25N 28°56' W 095°19'2 5.6
2018-Feb-15 23:00N 28°55' W 095°22'0 0.3
2018-Feb-15 22:26N 28°54' W 095°22'1 1.2
2018-Feb-15 21:17N 28°54' W 095°23'1 3.3
2018-Feb-15 20:59N 28°54' W 095°24'1 1.1
2018-Feb-15 20:01N 28°54' W 095°23'0 3.5
2018-Feb-15 19:59N 28°54' W 095°23'1 1.1
2018-Feb-15 19:08N 28°54' W 095°24'0 0.1
2018-Feb-15 18:54N 28°54' W 095°24'1 1.7
2018-Feb-15 18:23N 28°53' W 095°25'5 5.9
2018-Feb-15 17:29N 28°51' W 095°31'3 5.6
2018-Feb-15 17:00N 28°49' W 095°33'2 3.7
2018-Feb-15 16:29N 28°48' W 095°34'0 0.0
2018-Feb-15 15:59N 28°48' W 095°34'0 0.0
2018-Feb-15 15:16N 28°48' W 095°34'0 0.0
2018-Feb-15 15:00N 28°48' W 095°34'0 0.0
2018-Feb-15 14:29N 28°48' W 095°34'0 0.0
2018-Feb-15 13:59N 28°48' W 095°34'0 0.0
2018-Feb-15 13:27N 28°48' W 095°34'0 0.0
2018-Feb-15 13:00N 28°48' W 095°34'0 0.0
2018-Feb-15 12:30N 28°48' W 095°34'0 0.0
2018-Feb-15 11:04N 28°48' W 095°34'0 0.0
2018-Feb-15 10:32N 28°48' W 095°34'0 0.0
2018-Feb-15 10:27N 28°48' W 095°34'0 0.0
2018-Feb-15 09:58N 28°48' W 095°34'0 0.0
2018-Feb-15 08:42N 28°48' W 095°34'0 0.0
2018-Feb-15 07:41N 28°48' W 095°34'0 0.0
2018-Feb-15 07:29N 28°48' W 095°34'0 0.0
2018-Feb-15 06:56N 28°48' W 095°34'0 0.0
2018-Feb-15 06:30N 28°48' W 095°34'0 0.0
2018-Feb-15 06:00N 28°48' W 095°34'0 0.0
2018-Feb-15 05:25N 28°48' W 095°34'0 0.0
2018-Feb-15 04:52N 28°48' W 095°34'0 0.0
2018-Feb-15 04:22N 28°48' W 095°34'0 0.0
2018-Feb-15 03:58N 28°48' W 095°34'0 0.0
2018-Feb-15 03:16N 28°48' W 095°34'0 0.0
2018-Feb-15 03:00N 28°48' W 095°34'0 0.0
2018-Feb-15 01:49N 28°48' W 095°34'0 0.0
2018-Feb-15 00:43N 28°48' W 095°34'0 0.0
2018-Feb-15 00:19N 28°48' W 095°34'0 0.0
2018-Feb-14 21:47N 28°48' W 095°34'0 0.0
2018-Feb-14 20:06N 28°48' W 095°34'0 0.0
2018-Feb-14 20:00N 28°48' W 095°34'0 0.3
2018-Feb-14 19:29N 28°48' W 095°34'2 2.0
2018-Feb-14 18:22N 28°46' W 095°37'1 2.3
2018-Feb-14 17:50N 28°46' W 095°38'0 0.1
2018-Feb-14 16:50N 28°46' W 095°38'0 0.0
2018-Feb-14 16:27N 28°46' W 095°38'0 0.0
2018-Feb-14 15:40N 28°46' W 095°38'0 0.0
2018-Feb-14 13:55N 28°46' W 095°38'56 1.8
2018-Feb-13 07:07N 28°21' W 096°36'1 5.6
2018-Feb-13 06:54N 28°21' W 096°37'2 5.4
2018-Feb-13 06:29N 28°20' W 096°39'3 5.1
2018-Feb-13 05:53N 28°18' W 096°42'3 6.3
2018-Feb-13 05:21N 28°16' W 096°45'2 6.2
2018-Feb-13 04:57N 28°14' W 096°47'3 5.8
2018-Feb-13 04:29N 28°12' W 096°49'3 5.3
2018-Feb-13 03:57N 28°11' W 096°52'3 5.4
2018-Feb-13 03:29N 28°09' W 096°54'2 4.4
2018-Feb-13 02:57N 28°07' W 096°56'3 5.9
2018-Feb-13 02:29N 28°05' W 096°57'3 6.4
2018-Feb-13 01:59N 28°02' W 096°60'3 6.6
2018-Feb-13 01:29N 27°60' W 097°02'3 6.2
2018-Feb-13 00:59N 27°57' W 097°04'4 7.1
2018-Feb-13 00:27N 27°53' W 097°03'1 2.2
2018-Feb-12 23:59N 27°52' W 097°03'1 1.0
2018-Feb-12 23:27N 27°53' W 097°03'0 0.5
2018-Feb-12 22:59N 27°53' W 097°03'0 0.0
2018-Feb-12 22:29N 27°53' W 097°03'0 0.1
2018-Feb-12 21:59N 27°53' W 097°03'0 0.0
2018-Feb-12 21:29N 27°53' W 097°03'1 1.5
2018-Feb-12 20:59N 27°52' W 097°03'3 5.1
2018-Feb-12 20:29N 27°50' W 097°05'3 6.7
2018-Feb-12 19:59N 27°50' W 097°09'4 7.6
2018-Feb-12 19:29N 27°49' W 097°13'5 7.7
2018-Feb-12 18:53N 27°49' W 097°18'4 7.6
2018-Feb-12 18:21N 27°49' W 097°22'4 7.3
2018-Feb-12 17:50N 27°49' W 097°27'2 3.2
2018-Feb-12 17:10N 27°49' W 097°29'0 0.0
2018-Feb-12 16:54N 27°49' W 097°29'0 0.0
2018-Feb-12 16:21N 27°49' W 097°29'0 0.0
2018-Feb-12 15:58N 27°49' W 097°29'0 0.0
2018-Feb-12 15:12N 27°49' W 097°29'0 0.0
2018-Feb-12 14:52N 27°49' W 097°29'  

Dump ship's entire track history